createdAt,value
2022-10-08T01:05:47.401Z,5.20
2022-10-08T01:11:04.644Z,5.30
2022-10-08T01:16:22.273Z,4.53
2022-10-08T01:21:43.435Z,4.30
2022-10-08T01:27:01.072Z,4.30
2022-10-08T01:32:16.859Z,3.92
2022-10-08T01:37:30.011Z,4.45
2022-10-08T01:42:40.052Z,4.68
2022-10-08T01:47:52.389Z,4.30
2022-10-08T01:53:04.678Z,4.53
2022-10-08T01:58:17.274Z,4.65
2022-10-08T02:03:27.387Z,3.53
2022-10-08T02:08:34.972Z,3.65
2022-10-08T02:13:43.264Z,3.90
2022-10-08T02:19:01.149Z,3.30
2022-10-08T02:24:15.944Z,3.53
2022-10-08T02:29:30.518Z,4.03
2022-10-08T02:34:45.557Z,3.20
2022-10-08T02:40:00.624Z,3.67
2022-10-08T02:45:13.051Z,2.92
2022-10-08T02:50:27.619Z,3.75
2022-10-08T02:55:47.270Z,3.58
2022-10-08T03:01:00.186Z,3.72
2022-10-08T03:06:13.669Z,3.70
2022-10-08T03:11:21.194Z,4.10
2022-10-08T03:16:35.005Z,3.35
2022-10-08T03:21:47.545Z,3.15
2022-10-08T03:26:55.221Z,2.90
2022-10-08T03:32:02.736Z,4.25
2022-10-08T03:37:12.815Z,3.60
2022-10-08T03:42:20.334Z,3.55
2022-10-08T03:47:27.938Z,3.17
2022-10-08T03:52:38.072Z,4.03
2022-10-08T03:57:45.566Z,3.05
2022-10-08T04:02:53.258Z,3.63
2022-10-08T04:08:03.381Z,3.03
2022-10-08T04:13:11.046Z,3.30
2022-10-08T04:18:18.894Z,3.10
2022-10-08T04:23:29.113Z,3.53
2022-10-08T04:28:39.291Z,3.50
2022-10-08T04:33:47.879Z,3.13
2022-10-08T04:38:57.966Z,3.97
2022-10-08T04:44:05.460Z,3.75
2022-10-08T04:49:14.282Z,3.70
2022-10-08T04:54:24.591Z,2.85
2022-10-08T04:59:32.093Z,3.50
2022-10-08T05:04:39.593Z,3.35
2022-10-08T05:09:49.667Z,2.97
2022-10-08T05:14:57.159Z,3.08
2022-10-08T05:20:05.123Z,3.58
2022-10-08T05:25:15.400Z,4.32
2022-10-08T05:30:22.954Z,2.93
2022-10-08T05:35:30.526Z,3.00
2022-10-08T05:40:40.607Z,3.50
2022-10-08T05:45:52.950Z,3.35
2022-10-08T05:51:05.886Z,3.08
2022-10-08T05:56:18.020Z,2.85
2022-10-08T06:01:28.093Z,2.55
2022-10-08T06:06:37.990Z,2.80
2022-10-08T06:11:48.417Z,2.92
2022-10-08T06:16:55.902Z,2.47
2022-10-08T06:22:03.386Z,3.40
2022-10-08T06:27:13.464Z,2.88
2022-10-08T06:32:21.518Z,2.67
2022-10-08T06:37:29.028Z,3.22
2022-10-08T06:42:39.132Z,3.08
2022-10-08T06:47:46.648Z,3.67
2022-10-08T06:52:54.145Z,2.13
2022-10-08T06:58:06.200Z,2.30
2022-10-08T07:03:13.881Z,2.85
2022-10-08T07:08:21.408Z,3.40
2022-10-08T07:13:31.586Z,3.00
2022-10-08T07:18:40.546Z,3.72
2022-10-08T07:23:48.662Z,3.30
2022-10-08T07:29:02.816Z,3.95
2022-10-08T07:34:13.662Z,3.53
2022-10-08T07:39:21.599Z,3.28
2022-10-08T07:44:31.679Z,2.30
2022-10-08T07:49:39.164Z,2.58
2022-10-08T07:54:46.781Z,2.35
2022-10-08T07:59:56.897Z,2.70
2022-10-08T08:05:04.468Z,2.85
2022-10-08T08:10:12.274Z,2.28
2022-10-08T08:15:22.438Z,2.20
2022-10-08T08:20:29.929Z,2.17
2022-10-08T08:25:37.418Z,1.77
2022-10-08T08:30:47.522Z,1.90
2022-10-08T08:35:55.791Z,1.77
2022-10-08T08:41:13.565Z,1.80
2022-10-08T08:46:25.282Z,2.00
2022-10-08T08:51:34.661Z,1.60
2022-10-08T08:56:42.398Z,1.75
2022-10-08T09:01:54.259Z,1.40
2022-10-08T09:07:04.098Z,1.42
2022-10-08T09:12:21.038Z,1.23
2022-10-08T09:17:36.199Z,0.93
2022-10-08T09:22:45.700Z,1.50
2022-10-08T09:27:56.540Z,1.40
2022-10-08T09:33:19.106Z,1.53
2022-10-08T09:38:28.956Z,1.33
2022-10-08T09:43:38.029Z,1.15
2022-10-08T09:48:48.197Z,1.13
2022-10-08T09:54:01.307Z,1.35
2022-10-08T09:59:10.111Z,1.30
2022-10-08T10:04:32.534Z,1.30
2022-10-08T10:09:47.275Z,1.30
2022-10-08T10:15:00.305Z,1.63
2022-10-08T10:20:20.195Z,1.35
2022-10-08T10:25:37.515Z,1.42
2022-10-08T10:30:52.452Z,1.27
2022-10-08T10:36:07.469Z,1.20
2022-10-08T10:41:24.564Z,1.35
2022-10-08T10:46:37.140Z,1.48
2022-10-08T10:52:00.451Z,1.50
2022-10-08T10:57:14.657Z,1.52
2022-10-08T11:02:29.856Z,1.20
2022-10-08T11:08:04.594Z,1.55
2022-10-08T11:13:23.607Z,1.33
2022-10-08T11:18:38.975Z,1.50
2022-10-08T11:24:18.890Z,1.38
2022-10-08T11:29:32.307Z,1.25
2022-10-08T11:34:40.825Z,1.60
2022-10-08T11:40:01.732Z,1.05
2022-10-08T11:50:47.000Z,1.10
2022-10-08T11:56:00.813Z,1.20
2022-10-08T12:01:10.648Z,1.40
2022-10-08T12:06:21.399Z,1.60
2022-10-08T12:11:58.867Z,1.20
2022-10-08T12:17:13.744Z,1.48
2022-10-08T12:22:46.073Z,1.50
2022-10-08T12:28:32.400Z,1.17
2022-10-08T12:33:39.957Z,1.13
2022-10-08T12:38:53.935Z,1.20
2022-10-08T12:44:09.458Z,1.08
2022-10-08T12:49:24.562Z,1.20
2022-10-08T12:54:34.066Z,0.93
2022-10-08T12:59:46.570Z,1.17
2022-10-08T13:04:54.111Z,1.48
2022-10-08T13:10:03.696Z,1.13
2022-10-08T13:15:26.229Z,1.23
2022-10-08T13:20:33.783Z,1.05
2022-10-08T13:25:43.652Z,1.15
2022-10-08T13:30:58.683Z,1.08
2022-10-08T13:36:06.388Z,1.02
2022-10-08T13:41:23.936Z,1.42
2022-10-08T13:46:34.312Z,1.02
2022-10-08T13:51:43.102Z,1.03
2022-10-08T13:56:50.916Z,1.35
2022-10-08T14:02:01.133Z,0.82
2022-10-08T14:07:17.246Z,0.83
2022-10-08T14:12:30.183Z,0.90
2022-10-08T14:17:41.416Z,1.00
2022-10-08T14:22:48.932Z,0.80
2022-10-08T14:27:57.053Z,0.60
2022-10-08T14:33:11.137Z,1.08
2022-10-08T14:38:19.263Z,0.80
2022-10-08T14:43:27.812Z,0.80
2022-10-08T14:48:39.264Z,0.73
2022-10-08T14:53:46.841Z,0.82
2022-10-08T14:58:54.323Z,0.80
2022-10-08T15:04:04.513Z,1.10
2022-10-08T15:09:13.274Z,1.48
2022-10-08T15:14:20.760Z,1.00
2022-10-08T15:19:30.917Z,0.70
2022-10-08T15:24:38.448Z,1.25
2022-10-08T15:29:45.969Z,0.77
2022-10-08T15:34:56.255Z,0.70
2022-10-08T15:40:03.784Z,0.80
2022-10-08T15:45:11.863Z,0.70
2022-10-08T15:50:22.087Z,1.08
2022-10-08T15:55:29.669Z,0.60
2022-10-08T16:00:38.216Z,0.80
2022-10-08T16:05:48.428Z,0.65
2022-10-08T16:10:58.157Z,0.60
2022-10-08T16:16:05.981Z,1.00
2022-10-08T16:21:16.767Z,1.02
2022-10-08T16:26:25.029Z,0.60
2022-10-08T16:31:34.057Z,0.60
2022-10-08T16:36:44.499Z,0.60
2022-10-08T16:41:52.876Z,0.70
2022-10-08T16:47:00.455Z,0.88
2022-10-08T16:52:11.611Z,0.80
2022-10-08T17:02:27.932Z,0.80
2022-10-08T17:07:38.062Z,0.80
2022-10-08T17:12:45.718Z,0.90
2022-10-08T17:17:55.643Z,0.50
2022-10-08T17:23:06.223Z,1.02
2022-10-08T17:28:13.752Z,1.07
2022-10-08T17:33:21.310Z,0.90
2022-10-08T17:38:31.516Z,1.00
2022-10-08T17:43:39.013Z,0.70
2022-10-08T17:48:47.153Z,0.82
2022-10-08T17:53:58.462Z,0.95
2022-10-08T17:59:06.872Z,0.77
2022-10-08T18:04:16.625Z,0.80
2022-10-08T18:09:26.778Z,0.77
2022-10-08T18:14:34.453Z,1.08
2022-10-08T18:19:42.090Z,1.02
2022-10-08T18:24:52.355Z,2.33
2022-10-08T18:29:59.898Z,2.57
2022-10-08T18:35:08.110Z,1.65
2022-10-08T18:40:18.456Z,1.63
2022-10-08T18:45:26.244Z,1.33
2022-10-08T18:50:33.733Z,1.10
2022-10-08T18:55:51.070Z,1.25
2022-10-08T19:00:59.208Z,0.80
2022-10-08T19:06:09.708Z,1.23
2022-10-08T19:11:22.176Z,0.90
2022-10-08T19:16:29.806Z,1.10
2022-10-08T19:21:38.840Z,1.13
2022-10-08T19:26:50.159Z,1.80
2022-10-08T19:31:58.609Z,1.33
2022-10-08T19:37:06.094Z,1.50
2022-10-08T19:42:16.423Z,0.93
2022-10-08T19:52:36.874Z,1.40
2022-10-08T19:57:47.594Z,1.00
2022-10-08T20:02:55.107Z,1.48
2022-10-08T20:08:02.606Z,0.80
2022-10-08T20:13:12.752Z,1.42
2022-10-08T20:18:20.309Z,1.13
2022-10-08T20:23:27.840Z,1.27
2022-10-08T20:28:38.280Z,2.00
2022-10-08T20:33:46.962Z,1.45
2022-10-08T20:38:55.051Z,1.27
2022-10-08T20:44:06.799Z,1.10
2022-10-08T20:49:16.066Z,1.13
2022-10-08T20:54:23.582Z,1.13
2022-10-08T20:59:34.055Z,1.90
2022-10-08T21:04:41.826Z,1.50
2022-10-08T21:09:52.834Z,1.33
2022-10-08T21:20:11.906Z,1.85
2022-10-08T21:25:19.419Z,1.20
2022-10-08T21:30:29.519Z,1.23
2022-10-08T21:35:39.041Z,1.30
2022-10-08T21:40:46.571Z,1.45
2022-10-08T21:46:02.438Z,1.40
2022-10-08T21:51:11.914Z,1.83
2022-10-08T21:56:22.302Z,1.90
2022-10-08T22:01:34.794Z,1.37
2022-10-08T22:06:45.054Z,1.40
2022-10-08T22:11:53.529Z,1.37
2022-10-08T22:17:03.886Z,1.50
2022-10-08T22:22:11.446Z,1.50
2022-10-08T22:27:18.960Z,1.65
2022-10-08T22:32:29.087Z,1.23
2022-10-08T22:37:36.656Z,1.50
2022-10-08T22:42:44.190Z,1.50
2022-10-08T22:47:54.559Z,1.20
2022-10-08T22:53:02.082Z,1.45
2022-10-08T22:58:09.559Z,1.95
2022-10-08T23:03:19.712Z,1.70
2022-10-08T23:08:27.308Z,1.30
2022-10-08T23:13:35.603Z,1.85
2022-10-08T23:18:47.385Z,1.52
2022-10-08T23:23:56.245Z,1.77
2022-10-08T23:29:04.619Z,1.70
2022-10-08T23:34:14.697Z,1.30
2022-10-08T23:39:22.208Z,1.63
2022-10-08T23:44:29.749Z,1.45
2022-10-08T23:49:39.829Z,1.70
2022-10-08T23:54:47.340Z,1.20
2022-10-08T23:59:54.864Z,1.17
